createdAt,value
2023-04-11T00:03:45.612Z,100899.03
2023-04-11T00:08:36.944Z,100903.31
2023-04-11T00:13:29.827Z,100886.88
2023-04-11T00:18:20.320Z,100898.19
2023-04-11T00:23:13.744Z,100897.31
2023-04-11T00:28:04.331Z,100911.19
2023-04-11T00:32:55.209Z,100901.66
2023-04-11T00:37:46.057Z,100905.97
2023-04-11T00:42:38.676Z,100906.84
2023-04-11T00:47:33.059Z,100906.88
2023-04-11T00:52:23.710Z,100910.31
2023-04-11T00:57:16.037Z,100913.84
2023-04-11T01:02:11.091Z,100899.16
2023-04-11T01:07:07.169Z,100923.34
2023-04-11T01:12:01.870Z,100918.16
2023-04-11T01:16:55.314Z,100909.53
2023-04-11T01:21:50.099Z,100912.94
2023-04-11T01:26:45.721Z,100912.97
2023-04-11T01:31:39.383Z,100915.56
2023-04-11T01:36:30.892Z,100919.88
2023-04-11T01:41:24.999Z,100932.81
2023-04-11T01:46:19.340Z,100937.16
2023-04-11T01:51:10.958Z,100938.88
2023-04-11T01:56:01.596Z,100948.38
2023-04-11T02:00:58.662Z,100953.56
2023-04-11T02:05:53.522Z,100962.22
2023-04-11T02:10:44.116Z,100955.28
2023-04-11T02:15:35.137Z,100967.38
2023-04-11T02:20:25.865Z,100966.53
2023-04-11T02:25:23.426Z,100974.28
2023-04-11T02:30:14.164Z,100976.91
2023-04-11T02:35:05.880Z,100976.91
2023-04-11T02:40:01.304Z,100988.09
2023-04-11T02:44:57.713Z,100985.50
2023-04-11T02:49:52.614Z,100987.25
2023-04-11T02:54:51.813Z,100995.00
2023-04-11T02:59:42.498Z,100997.59
2023-04-11T03:04:41.089Z,100998.41
2023-04-11T03:09:39.685Z,100994.16
2023-04-11T03:14:32.444Z,100994.97
2023-04-11T03:19:26.564Z,100994.94
2023-04-11T03:24:22.771Z,101023.97
2023-04-11T03:29:18.226Z,101024.84
2023-04-11T03:34:26.446Z,101020.53
2023-04-11T03:39:23.740Z,101020.53
2023-04-11T03:44:17.841Z,101035.19
2023-04-11T03:49:12.613Z,101051.56
2023-04-11T03:54:04.242Z,101052.44
2023-04-11T03:59:02.988Z,101057.56
2023-04-11T04:04:07.737Z,101068.75
2023-04-11T04:09:06.350Z,101071.31
2023-04-11T04:14:35.693Z,101076.44
2023-04-11T04:19:29.591Z,101063.44
2023-04-11T04:24:21.607Z,101084.16
2023-04-11T04:29:40.255Z,101076.44
2023-04-11T04:34:35.556Z,101091.84
2023-04-11T04:39:30.808Z,101099.63
2023-04-11T04:44:31.455Z,101090.09
2023-04-11T04:49:34.120Z,101099.47
2023-04-11T04:54:26.692Z,101106.34
2023-04-11T04:59:19.617Z,101114.97
2023-04-11T05:04:18.724Z,101121.00
2023-04-11T05:09:23.102Z,101121.81
2023-04-11T05:14:19.909Z,101128.75
2023-04-11T05:19:11.582Z,101133.06
2023-04-11T05:24:10.634Z,101137.41
2023-04-11T05:29:08.339Z,101137.34
2023-04-11T05:34:02.623Z,101150.34
2023-04-11T05:38:56.535Z,101155.56
2023-04-11T05:43:47.289Z,101156.53
2023-04-11T05:48:44.892Z,101156.66
2023-04-11T05:53:36.484Z,101158.38
2023-04-11T05:58:27.787Z,101172.22
2023-04-11T06:03:18.651Z,101175.72
2023-04-11T06:08:15.714Z,101195.50
2023-04-11T06:13:06.865Z,101189.47
2023-04-11T06:17:58.109Z,101190.38
2023-04-11T06:22:53.494Z,101194.84
2023-04-11T06:27:48.899Z,101194.00
2023-04-11T06:32:41.527Z,101208.00
2023-04-11T06:37:32.709Z,101208.06
2023-04-11T06:42:26.903Z,101206.31
2023-04-11T06:47:21.901Z,101213.44
2023-04-11T06:52:19.915Z,101223.75
2023-04-11T06:57:11.210Z,101240.13
2023-04-11T07:02:12.514Z,101233.22
2023-04-11T07:07:07.918Z,101249.69
2023-04-11T07:12:06.050Z,101255.78
2023-04-11T07:17:01.030Z,101261.91
2023-04-11T07:21:52.137Z,101268.91
2023-04-11T07:27:02.157Z,101284.44
2023-04-11T07:31:56.591Z,101283.63
2023-04-11T07:36:58.065Z,101290.56
2023-04-11T07:42:02.005Z,101294.09
2023-04-11T07:46:53.586Z,101284.63
2023-04-11T07:51:48.122Z,101282.88
2023-04-11T07:56:42.566Z,101298.47
2023-04-11T08:01:38.785Z,101291.63
2023-04-11T08:06:44.692Z,101308.06
2023-04-11T08:11:40.798Z,101348.75
2023-04-11T08:16:31.514Z,101322.75
2023-04-11T08:21:23.857Z,101319.31
2023-04-11T08:26:16.609Z,101322.00
2023-04-11T08:31:13.608Z,101334.09
2023-04-11T08:36:10.980Z,101343.63
2023-04-11T08:41:14.878Z,101366.13
2023-04-11T08:46:08.795Z,101349.56
2023-04-11T08:51:09.873Z,101366.63
2023-04-11T08:56:03.308Z,101370.13
2023-04-11T09:00:53.955Z,101353.63
2023-04-11T09:05:46.077Z,101370.03
2023-04-11T09:10:40.784Z,101376.03
2023-04-11T09:15:32.190Z,101360.50
2023-04-11T09:20:36.219Z,101381.97
2023-04-11T09:25:26.593Z,101379.06
2023-04-11T09:30:30.199Z,101383.03
2023-04-11T09:35:27.029Z,101380.84
2023-04-11T09:40:23.309Z,101388.28
2023-04-11T09:45:23.879Z,101380.44
2023-04-11T09:50:22.588Z,101391.22
2023-04-11T09:55:17.159Z,101383.28
2023-04-11T10:00:14.980Z,101380.25
2023-04-11T10:05:11.065Z,101394.44
2023-04-11T10:10:06.990Z,101392.69
2023-04-11T10:14:59.640Z,101383.19
2023-04-11T10:19:52.114Z,101381.19
2023-04-11T10:24:46.142Z,101388.63
2023-04-11T10:30:00.952Z,101388.25
2023-04-11T10:35:24.713Z,101395.25
2023-04-11T10:40:17.394Z,101376.16
2023-04-11T10:45:28.222Z,101389.78
2023-04-11T10:50:37.552Z,101438.81
2023-04-11T10:55:48.995Z,101391.66
2023-04-11T11:00:56.269Z,101395.25
2023-04-11T11:05:52.616Z,101384.53
2023-04-11T11:10:44.377Z,101392.06
2023-04-11T11:15:40.270Z,101383.25
2023-04-11T11:20:34.537Z,101400.75
2023-04-11T11:25:30.032Z,101401.44
2023-04-11T11:30:24.171Z,101406.81
2023-04-11T11:35:20.882Z,101418.94
2023-04-11T11:40:15.178Z,101421.03
2023-04-11T11:45:21.197Z,101422.94
2023-04-11T11:50:31.741Z,101428.38
2023-04-11T11:55:43.209Z,101419.16
2023-04-11T12:00:53.916Z,101429.59
2023-04-11T12:05:55.798Z,101420.84
2023-04-11T12:10:55.886Z,101414.63
2023-04-11T12:16:03.062Z,101425.47
2023-04-11T12:20:57.122Z,101419.81
2023-04-11T12:25:52.511Z,101416.41
2023-04-11T12:30:43.122Z,101417.44
2023-04-11T12:35:39.047Z,101408.47
2023-04-11T12:40:35.100Z,101413.41
2023-04-11T12:45:26.760Z,101409.94
2023-04-11T12:50:24.308Z,101424.50
2023-04-11T12:55:22.326Z,101418.34
2023-04-11T13:00:18.777Z,101411.28
2023-04-11T13:05:12.362Z,101410.13
2023-04-11T13:10:14.446Z,101416.53
2023-04-11T13:15:13.444Z,101421.28
2023-04-11T13:20:18.970Z,101428.59
2023-04-11T13:25:20.485Z,101411.91
2023-04-11T13:30:27.648Z,101395.34
2023-04-11T13:35:25.334Z,101390.88
2023-04-11T13:40:18.118Z,101398.84
2023-04-11T13:45:12.503Z,101403.31
2023-04-11T13:50:10.745Z,101398.78
2023-04-11T13:55:08.535Z,101381.28
2023-04-11T14:00:07.417Z,101379.34
2023-04-11T14:05:01.655Z,101367.84
2023-04-11T14:10:00.238Z,101349.50
2023-04-11T14:14:55.655Z,101345.25
2023-04-11T14:19:59.411Z,101357.00
2023-04-11T14:24:52.856Z,101344.13
2023-04-11T14:29:46.491Z,101344.88
2023-04-11T14:34:40.433Z,101339.59
2023-04-11T14:39:33.221Z,101331.03
2023-04-11T14:44:24.525Z,101328.31
2023-04-11T14:49:39.710Z,101322.03
2023-04-11T14:54:39.627Z,101323.50
2023-04-11T14:59:33.895Z,101296.88
2023-04-11T15:04:27.243Z,101317.78
2023-04-11T15:09:23.775Z,101295.09
2023-04-11T15:14:14.656Z,101297.75
2023-04-11T15:19:08.313Z,101274.66
2023-04-11T15:23:59.774Z,101287.66
2023-04-11T15:28:55.216Z,101283.38
2023-04-11T15:33:47.097Z,101283.38
2023-04-11T15:38:40.542Z,101270.19
2023-04-11T15:43:36.248Z,101258.94
2023-04-11T15:48:29.455Z,101263.94
2023-04-11T15:53:20.822Z,101263.19
2023-04-11T15:58:14.304Z,101252.00
2023-04-11T16:03:09.006Z,101247.63
2023-04-11T16:08:04.869Z,101237.28
2023-04-11T16:12:58.931Z,101225.06
2023-04-11T16:17:53.027Z,101222.31
2023-04-11T16:22:45.849Z,101213.69
2023-04-11T16:27:39.715Z,101195.59
2023-04-11T16:32:37.510Z,101206.84
2023-04-11T16:37:29.552Z,101191.50
2023-04-11T16:42:27.160Z,101192.47
2023-04-11T16:47:26.746Z,101178.84
2023-04-11T16:52:19.400Z,101156.69
2023-04-11T16:57:18.733Z,101159.53
2023-04-11T17:02:17.410Z,101168.19
2023-04-11T17:07:16.370Z,101158.03
2023-04-11T17:12:09.243Z,101133.81
2023-04-11T17:17:07.429Z,101140.84
2023-04-11T17:22:08.739Z,101140.81
2023-04-11T17:27:09.467Z,101136.56
2023-04-11T17:31:59.509Z,101121.09
2023-04-11T17:36:52.239Z,101109.69
2023-04-11T17:41:42.081Z,101108.03
2023-04-11T17:46:34.264Z,101100.53
2023-04-11T17:51:24.722Z,101090.94
2023-04-11T17:56:17.540Z,101092.84
2023-04-11T18:01:15.134Z,101083.50
2023-04-11T18:06:11.217Z,101079.22
2023-04-11T18:11:21.092Z,101085.34
2023-04-11T18:16:15.781Z,101082.84
2023-04-11T18:21:16.553Z,101061.34
2023-04-11T18:26:09.817Z,101057.06
2023-04-11T18:31:04.185Z,101058.72
2023-04-11T18:35:57.166Z,101061.38
2023-04-11T18:40:56.305Z,101063.22
2023-04-11T18:45:52.214Z,101053.66
2023-04-11T18:50:43.474Z,101048.44
2023-04-11T18:55:37.911Z,101046.78
2023-04-11T19:00:46.987Z,101040.81
2023-04-11T19:05:40.187Z,101032.25
2023-04-11T19:10:34.939Z,101020.13
2023-04-11T19:15:27.377Z,101012.44
2023-04-11T19:20:23.404Z,101008.22
2023-04-11T19:25:18.592Z,101005.69
2023-04-11T19:30:14.032Z,101004.75
2023-04-11T19:35:04.739Z,100994.34
2023-04-11T19:39:59.469Z,100982.34
2023-04-11T19:44:49.974Z,100980.81
2023-04-11T19:49:46.281Z,100971.38
2023-04-11T19:54:36.663Z,100961.03
2023-04-11T19:59:29.927Z,100956.72
2023-04-11T20:04:20.283Z,100951.53
2023-04-11T20:09:12.332Z,100938.59
2023-04-11T20:14:06.024Z,100930.78
2023-04-11T20:19:02.488Z,100920.38
2023-04-11T20:23:54.715Z,100921.25
2023-04-11T20:28:51.326Z,100898.69
2023-04-11T20:33:45.121Z,100891.84
2023-04-11T20:38:45.017Z,100884.09
2023-04-11T20:43:39.869Z,100866.81
2023-04-11T20:48:30.738Z,100856.44
2023-04-11T20:53:21.884Z,100845.16
2023-04-11T20:58:20.363Z,100837.44
2023-04-11T21:03:13.080Z,100820.09
2023-04-11T21:08:02.798Z,100822.75
2023-04-11T21:12:54.648Z,100811.59
2023-04-11T21:17:48.117Z,100802.09
2023-04-11T21:22:50.113Z,100802.13
2023-04-11T21:27:41.749Z,100814.47
2023-04-11T21:32:35.537Z,100816.22
2023-04-11T21:37:28.746Z,100794.66
2023-04-11T21:42:20.688Z,100774.78
2023-04-11T21:47:11.802Z,100774.94
2023-04-11T21:52:02.285Z,100767.31
2023-04-11T21:56:59.337Z,100760.44
2023-04-11T22:02:00.741Z,100757.91
2023-04-11T22:06:56.620Z,100755.38
2023-04-11T22:11:50.447Z,100737.31
2023-04-11T22:16:49.732Z,100720.06
2023-04-11T22:21:48.889Z,100697.66
2023-04-11T22:26:43.371Z,100689.03
2023-04-11T22:31:44.616Z,100661.38
2023-04-11T22:36:38.914Z,100662.28
2023-04-11T22:41:31.256Z,100651.09
2023-04-11T22:46:21.188Z,100635.56
2023-04-11T22:51:16.886Z,100621.75
2023-04-11T22:56:11.970Z,100615.72
2023-04-11T23:01:03.581Z,100606.25
2023-04-11T23:05:54.049Z,100593.31
2023-04-11T23:10:43.838Z,100589.00
2023-04-11T23:15:39.328Z,100581.25
2023-04-11T23:20:29.820Z,100563.22
2023-04-11T23:25:23.489Z,100555.41
2023-04-11T23:30:18.385Z,100543.28
2023-04-11T23:35:13.926Z,100531.28
2023-04-11T23:40:11.275Z,100509.63
2023-04-11T23:45:01.252Z,100493.25
2023-04-11T23:49:53.136Z,100467.38
2023-04-11T23:54:46.533Z,100460.53
2023-04-11T23:59:41.497Z,100457.13
